Polkville, Mississippi
Current Conditions -  °F | °C
As of 6:54 PM on Wednesday 22 Oct 2014 (Local Time) from KJAN Reporting Station
Clear Clear  
Wind Chill: 64°   Ceiling: Unl
Heat Index: 64°   Visibility: 10mi
Dew Point: 48°   Wind: 7mph
Humidity: 56%   Direction: 40°NE
Pressure: 30.11"   Gusts: NA
Location:  32.4637°N, 89.5548°W
Report Text: KJAN 222354Z 04006KT 10SM CLR 18/09 A3011 RMK AO2 SLP195 T01780089 10239 20178 53009
Loading
Personal Weather Stations






























Interactive Weather Map
Tropical Storm Tracking
New forecast layout! Learn more

10-Day Weather Forecast

Advertisements
Track Severe Weather on mobile